Time;durP1;ratioP1;P1;durP2;ratioP2;P2;SDS_P1;SDS_P2;PMS_P1;PMS_P2;Temp;Humidity;BMP_temperature;BMP_pressure;BME280_temperature;BME280_humidity;BME280_pressure;Samples;Min_cycle;Max_cycle;Signal;HPM_P1;HPM_P2
2022/02/27 00:00:24;;;;;;;11.77;6.40;;;;;;;18.53;42.74;103159.41;5016106;28;20059;-66
2022/02/27 00:02:49;;;;;;;10.63;6.25;;;;;;;18.49;42.78;103164.81;5016175;28;20275;-66
2022/02/27 00:05:15;;;;;;;11.17;6.53;;;;;;;18.48;42.91;103163.13;5015362;28;20429;-66
2022/02/27 00:07:40;;;;;;;10.10;5.80;;;;;;;18.44;43.11;103161.53;5015785;28;20292;-67
2022/02/27 00:10:09;;;;;;;10.73;6.35;;;;;;;18.42;42.82;103158.13;5016276;28;20018;-67
2022/02/27 00:12:34;;;;;;;14.05;6.28;;;;;;;18.39;42.73;103153.00;5015283;28;20018;-67
2022/02/27 00:15:00;;;;;;;11.48;6.38;;;;;;;18.38;43.21;103158.34;5016094;28;20033;-66
2022/02/27 00:17:25;;;;;;;11.73;6.20;;;;;;;18.36;43.06;103158.41;5015022;28;20030;-66
2022/02/27 00:19:50;;;;;;;11.15;6.03;;;;;;;18.32;42.99;103154.19;5015922;28;20417;-66
2022/02/27 00:22:15;;;;;;;11.48;6.40;;;;;;;18.31;43.02;103160.41;5016045;28;20021;-66
2022/02/27 00:24:41;;;;;;;12.38;6.40;;;;;;;18.28;43.16;103155.25;5014985;28;20109;-67
2022/02/27 00:27:06;;;;;;;12.20;7.35;;;;;;;18.26;43.15;103151.81;5016025;28;20373;-67
2022/02/27 00:29:31;;;;;;;12.57;6.13;;;;;;;18.24;43.34;103156.31;5015656;28;20105;-67
2022/02/27 00:31:57;;;;;;;11.27;6.40;;;;;;;18.22;43.05;103152.91;5015176;28;20053;-67
2022/02/27 00:34:22;;;;;;;11.85;6.20;;;;;;;18.19;43.17;103145.13;5015316;28;20049;-67
2022/02/27 00:36:51;;;;;;;10.52;5.97;;;;;;;18.16;43.24;103153.19;5015933;28;20420;-67
2022/02/27 00:39:18;;;;;;;9.80;5.55;;;;;;;18.14;43.54;103153.25;5015045;28;20385;-67
2022/02/27 00:41:45;;;;;;;9.57;6.38;;;;;;;18.11;43.69;103148.09;5015435;28;20033;-66
2022/02/27 00:44:11;;;;;;;10.90;6.10;;;;;;;18.10;43.45;103151.66;5015760;28;20380;-66
2022/02/27 00:46:36;;;;;;;11.38;5.63;;;;;;;18.07;43.54;103154.44;5014426;28;20029;-66
2022/02/27 00:49:04;;;;;;;10.30;5.50;;;;;;;18.03;43.35;103150.22;5015376;28;20026;-66
2022/02/27 00:51:31;;;;;;;11.15;5.95;;;;;;;18.02;43.60;103148.50;5014962;28;20635;-66
2022/02/27 00:54:00;;;;;;;10.07;5.90;;;;;;;17.99;43.72;103148.63;5014615;28;20054;-66
2022/02/27 00:56:25;;;;;;;10.60;5.15;;;;;;;17.95;43.68;103145.28;5014535;28;20052;-66
2022/02/27 00:58:50;;;;;;;11.80;5.95;;;;;;;17.93;43.30;103155.91;5015263;28;20462;-66
2022/02/27 01:01:18;;;;;;;9.85;5.50;;;;;;;17.92;43.36;103145.41;5014464;28;20164;-66
2022/02/27 01:03:45;;;;;;;9.60;5.60;;;;;;;17.90;43.37;103144.66;5014711;28;20026;-66
2022/02/27 01:06:11;;;;;;;10.10;5.43;;;;;;;17.89;43.65;103149.03;5014960;28;20370;-66
2022/02/27 01:08:39;;;;;;;10.00;5.45;;;;;;;17.87;43.33;103148.22;5013781;28;20375;-66
2022/02/27 01:11:04;;;;;;;9.90;5.38;;;;;;;17.84;43.30;103139.59;5015118;28;20065;-66
2022/02/27 01:13:39;;;;;;;11.02;5.43;;;;;;;17.82;43.54;103139.66;5014821;28;20096;-66
2022/02/27 01:16:06;;;;;;;10.27;5.45;;;;;;;17.81;43.24;103153.75;5015037;28;20030;-66
2022/02/27 01:18:32;;;;;;;9.73;5.50;;;;;;;17.80;43.25;103143.28;5014635;28;20033;-66
2022/02/27 01:20:57;;;;;;;10.30;5.55;;;;;;;17.74;43.38;103128.59;5014187;28;20030;-66
2022/02/27 01:23:22;;;;;;;9.73;4.70;;;;;;;17.75;43.45;103138.19;5014522;28;20495;-67
2022/02/27 01:25:48;;;;;;;12.35;5.35;;;;;;;17.73;43.18;103142.69;5014650;28;20646;-66
2022/02/27 01:28:14;;;;;;;10.13;4.82;;;;;;;17.71;43.13;103139.28;5014128;28;20018;-66
2022/02/27 01:30:39;;;;;;;10.50;5.13;;;;;;;17.71;43.40;103142.75;5014446;28;20022;-66
2022/02/27 01:33:04;;;;;;;10.87;5.43;;;;;;;17.70;43.12;103138.41;5014573;28;20025;-67
2022/02/27 01:35:32;;;;;;;10.90;5.47;;;;;;;17.68;43.42;103136.78;5013795;28;20310;-65
2022/02/27 01:37:57;;;;;;;9.07;5.22;;;;;;;17.65;43.32;103139.53;5014613;28;20014;-66
2022/02/27 01:40:23;;;;;;;12.10;5.47;;;;;;;17.63;43.25;103134.34;5014326;28;20069;-65
2022/02/27 01:42:49;;;;;;;10.30;5.40;;;;;;;17.63;43.06;103131.69;5013775;28;20029;-65
2022/02/27 01:45:25;;;;;;;10.45;4.75;;;;;;;17.63;43.27;103131.69;5014289;28;20112;-66
2022/02/27 01:47:50;;;;;;;11.00;4.90;;;;;;;17.65;43.87;103137.75;5014331;28;20481;-65
2022/02/27 01:50:21;;;;;;;8.30;4.35;;;;;;;17.66;43.33;103128.94;5013771;28;20084;-67
2022/02/27 01:52:46;;;;;;;9.18;4.82;;;;;;;17.66;43.09;103126.28;5014407;28;20116;-67
2022/02/27 01:55:12;;;;;;;9.23;5.03;;;;;;;17.72;43.04;103140.97;5014155;28;20121;-66
2022/02/27 01:57:37;;;;;;;10.45;4.70;;;;;;;17.73;43.17;103126.88;5013140;28;20290;-66
2022/02/27 02:00:07;;;;;;;8.88;4.70;;;;;;;17.74;43.20;103133.88;5014361;28;20053;-66
2022/02/27 02:02:32;;;;;;;10.13;4.80;;;;;;;17.77;43.18;103131.94;5014094;28;20112;-67
2022/02/27 02:04:57;;;;;;;11.30;5.18;;;;;;;17.80;43.21;103130.97;5013427;28;20108;-67
2022/02/27 02:07:23;;;;;;;9.37;4.50;;;;;;;17.81;42.71;103130.03;5012675;28;20057;-67
2022/02/27 02:09:51;;;;;;;8.82;4.93;;;;;;;17.81;42.99;103124.75;5013519;28;20279;-66
2022/02/27 02:12:16;;;;;;;9.27;4.60;;;;;;;17.81;42.83;103130.03;5013934;28;20030;-66
2022/02/27 02:14:41;;;;;;;8.82;4.43;;;;;;;17.83;42.92;103124.69;5013435;28;20022;-66
2022/02/27 02:17:07;;;;;;;10.25;4.35;;;;;;;17.82;42.67;103120.34;5013005;28;20018;-66
2022/02/27 02:19:32;;;;;;;7.82;4.40;;;;;;;17.82;42.37;103125.63;5013733;28;20044;-66
2022/02/27 02:22:01;;;;;;;7.88;4.57;;;;;;;17.81;42.31;103119.47;5014074;28;20018;-66
2022/02/27 02:24:27;;;;;;;8.52;4.40;;;;;;;17.81;42.31;103121.28;5012581;28;20025;-67
2022/02/27 02:26:56;;;;;;;9.23;4.40;;;;;;;17.79;42.08;103117.84;5013553;28;20029;-66
2022/02/27 02:29:22;;;;;;;9.63;4.40;;;;;;;17.79;42.12;103125.75;5013401;28;20373;-67
2022/02/27 02:31:49;;;;;;;8.18;4.40;;;;;;;17.76;42.15;103111.75;5012964;28;20060;-66
2022/02/27 02:34:18;;;;;;;8.95;4.07;;;;;;;17.78;42.11;103119.59;5013882;28;20022;-67
2022/02/27 02:36:44;;;;;;;10.70;4.28;;;;;;;17.77;42.19;103112.66;5013130;28;20026;-66
2022/02/27 02:39:11;;;;;;;8.45;4.40;;;;;;;17.77;42.24;103110.00;5012591;28;20030;-66
2022/02/27 02:41:37;;;;;;;7.72;4.15;;;;;;;17.76;42.22;103106.50;5013126;28;20461;-66
2022/02/27 02:44:04;;;;;;;9.20;4.50;;;;;;;17.75;42.63;103104.78;5013641;28;20076;-67
2022/02/27 02:46:30;;;;;;;8.27;3.97;;;;;;;17.77;42.46;103107.38;5012224;28;20022;-67
2022/02/27 02:48:56;;;;;;;7.70;4.03;;;;;;;17.78;42.56;103106.41;5013418;28;20022;-67
2022/02/27 02:51:21;;;;;;;8.07;3.75;;;;;;;17.79;42.56;103105.50;5013105;28;20018;-67
2022/02/27 02:53:50;;;;;;;8.98;4.57;;;;;;;17.80;42.67;103101.97;5012479;28;20025;-67
2022/02/27 02:56:15;;;;;;;9.30;3.80;;;;;;;17.79;42.20;103104.66;5013199;28;20040;-67
2022/02/27 02:58:42;;;;;;;7.15;3.78;;;;;;;17.81;41.83;103102.81;5013090;28;20017;-66
2022/02/27 03:01:13;;;;;;;9.57;4.03;;;;;;;17.81;42.19;103100.16;5012357;28;20370;-66
2022/02/27 03:03:40;;;;;;;6.60;3.60;;;;;;;17.81;42.17;103102.81;5012902;28;20390;-66
2022/02/27 03:06:05;;;;;;;8.20;3.88;;;;;;;17.80;41.72;103098.44;5012653;28;20051;-66
2022/02/27 03:08:31;;;;;;;7.05;3.78;;;;;;;17.79;42.00;103100.22;5012505;28;20045;-67
2022/02/27 03:10:58;;;;;;;8.73;3.70;;;;;;;17.79;41.92;103092.31;5013264;28;20152;-66
2022/02/27 03:13:23;;;;;;;8.88;4.38;;;;;;;17.78;42.07;103093.22;5012159;28;20359;-66
2022/02/27 03:15:48;;;;;;;8.00;3.75;;;;;;;17.77;41.79;103102.09;5013137;28;20540;-67
2022/02/27 03:18:16;;;;;;;9.17;3.57;;;;;;;17.77;42.19;103094.19;5013031;28;20030;-67
2022/02/27 03:20:42;;;;;;;7.40;3.65;;;;;;;17.76;42.45;103093.31;5018366;28;20330;-67
2022/02/27 03:23:08;;;;;;;7.47;3.40;;;;;;;17.77;42.45;103087.13;5019378;28;20021;-66
2022/02/27 03:25:33;;;;;;;7.22;3.85;;;;;;;17.80;42.64;103091.41;5019254;28;20045;-67
2022/02/27 03:27:59;;;;;;;7.28;3.60;;;;;;;17.81;42.79;103084.34;5018705;28;20026;-67
2022/02/27 03:30:24;;;;;;;8.93;3.63;;;;;;;17.81;42.31;103084.34;5019120;28;20026;-67
2022/02/27 03:32:50;;;;;;;8.23;3.90;;;;;;;17.83;42.46;103090.41;5019418;28;20032;-67
2022/02/27 03:35:20;;;;;;;7.85;3.80;;;;;;;17.83;42.30;103078.09;5018787;28;20022;-67
2022/02/27 03:37:50;;;;;;;9.93;3.67;;;;;;;17.83;42.38;103082.47;5019245;28;20481;-67
2022/02/27 03:40:19;;;;;;;6.70;3.17;;;;;;;17.82;42.07;103084.28;5019565;28;20026;-67
2022/02/27 03:42:45;;;;;;;7.40;3.30;;;;;;;17.83;41.81;103082.47;5018652;28;20022;-67
2022/02/27 03:45:12;;;;;;;5.85;3.15;;;;;;;17.83;42.08;103080.72;5019279;28;20084;-67
2022/02/27 03:47:42;;;;;;;6.90;3.58;;;;;;;17.82;42.77;103076.34;5019022;28;20038;-67
2022/02/27 03:50:08;;;;;;;9.77;3.78;;;;;;;17.85;42.63;103078.88;5018569;28;20112;-66
2022/02/27 03:52:35;;;;;;;8.65;3.55;;;;;;;17.86;42.17;103071.78;5018829;28;20153;-67
2022/02/27 03:55:01;;;;;;;8.48;3.53;;;;;;;17.86;42.03;103077.06;5019230;28;20038;-67
2022/02/27 03:57:26;;;;;;;8.95;3.80;;;;;;;17.87;42.13;103081.44;5018346;28;20033;-67
2022/02/27 03:59:51;;;;;;;7.95;3.47;;;;;;;17.87;42.25;103078.78;5019305;28;20026;-67
2022/02/27 04:02:17;;;;;;;8.30;3.28;;;;;;;17.88;42.06;103080.53;5019204;28;20022;-67
2022/02/27 04:04:42;;;;;;;5.88;3.13;;;;;;;17.87;41.75;103077.00;5018092;28;20072;-67
2022/02/27 04:07:07;;;;;;;7.20;3.25;;;;;;;17.88;42.20;103084.03;5018801;28;20038;-67
2022/02/27 04:09:32;;;;;;;7.88;3.50;;;;;;;17.87;41.66;103078.78;5018174;28;20025;-67
2022/02/27 04:11:58;;;;;;;7.67;3.10;;;;;;;17.86;41.71;103072.63;5019011;28;20034;-67
2022/02/27 04:14:26;;;;;;;5.60;3.23;;;;;;;17.84;41.80;103074.50;5018829;28;20639;-66
2022/02/27 04:16:51;;;;;;;6.40;3.20;;;;;;;17.84;41.81;103074.50;5018150;28;20279;-66
2022/02/27 04:19:16;;;;;;;6.95;3.10;;;;;;;17.85;42.30;103084.13;5018849;28;20026;-66
2022/02/27 04:21:42;;;;;;;6.03;3.08;;;;;;;17.86;42.42;103077.91;5018930;28;20401;-67
2022/02/27 04:24:07;;;;;;;7.63;3.15;;;;;;;17.85;42.21;103076.22;5018298;28;20418;-67
2022/02/27 04:26:32;;;;;;;7.13;3.00;;;;;;;17.86;42.19;103067.38;5018503;28;20022;-67
2022/02/27 04:28:58;;;;;;;7.47;3.10;;;;;;;17.88;42.21;103069.97;5018976;28;20279;-66
2022/02/27 04:31:23;;;;;;;7.57;2.90;;;;;;;17.88;42.16;103077.88;5014728;28;20382;-67
2022/02/27 04:33:52;;;;;;;6.05;2.88;;;;;;;17.86;41.76;103063.88;5015830;28;20267;-67
2022/02/27 04:36:17;;;;;;;7.53;3.58;;;;;;;17.88;41.75;103062.06;5015665;28;20029;-66
2022/02/27 04:38:42;;;;;;;7.23;3.20;;;;;;;17.89;41.71;103066.41;5014648;28;20026;-66
2022/02/27 04:41:08;;;;;;;8.03;3.07;;;;;;;17.88;41.69;103068.22;5015700;28;20295;-66
2022/02/27 04:43:33;;;;;;;8.57;3.55;;;;;;;17.86;41.43;103063.88;5015093;28;20770;-67
2022/02/27 04:45:58;;;;;;;6.55;2.90;;;;;;;17.86;41.57;103064.72;5014596;28;20037;-67
2022/02/27 04:48:23;;;;;;;7.20;3.28;;;;;;;17.85;41.44;103063.03;5014947;28;20405;-67
2022/02/27 04:50:49;;;;;;;6.38;2.83;;;;;;;17.85;41.89;103065.69;5015347;28;20029;-67
2022/02/27 04:53:14;;;;;;;6.90;3.10;;;;;;;17.85;41.73;103065.69;5014808;28;20068;-67
2022/02/27 04:55:39;;;;;;;7.40;2.80;;;;;;;17.86;42.28;103066.53;5015206;28;20267;-67
2022/02/27 04:58:04;;;;;;;7.03;3.28;;;;;;;17.88;41.83;103072.59;5015317;28;20068;-67
2022/02/27 05:00:35;;;;;;;7.18;2.72;;;;;;;17.89;41.92;103076.97;5014216;28;20393;-67
2022/02/27 05:03:00;;;;;;;7.97;3.47;;;;;;;17.87;41.63;103077.00;5015038;28;20461;-67
2022/02/27 05:05:26;;;;;;;7.40;3.00;;;;;;;17.88;41.75;103072.59;5014730;28;20057;-67
2022/02/27 05:07:51;;;;;;;5.88;2.88;;;;;;;17.87;41.51;103071.72;5014225;28;20844;-67
2022/02/27 05:10:16;;;;;;;6.47;2.67;;;;;;;17.87;41.16;103066.44;5015125;28;20049;-66
2022/02/27 05:12:42;;;;;;;6.13;2.33;;;;;;;17.85;41.41;103068.31;5014590;28;20272;-66
2022/02/27 05:15:09;;;;;;;7.18;3.25;;;;;;;17.86;41.01;103070.00;5015037;28;20033;-66
2022/02/27 05:17:35;;;;;;;7.18;2.88;;;;;;;17.86;40.99;103058.59;5014524;28;20030;-66
2022/02/27 05:20:01;;;;;;;6.65;2.78;;;;;;;17.86;41.68;103062.09;5014089;28;20113;-66
2022/02/27 05:22:26;;;;;;;7.47;2.92;;;;;;;17.85;41.64;103055.13;5014684;28;20057;-66
2022/02/27 05:24:52;;;;;;;6.07;2.65;;;;;;;17.86;41.32;103058.59;5014909;28;20025;-66
2022/02/27 05:27:17;;;;;;;7.32;2.70;;;;;;;17.86;41.51;103055.97;5014078;28;20022;-66
2022/02/27 05:29:42;;;;;;;5.97;2.80;;;;;;;17.87;41.42;103061.19;5014274;28;20398;-66
2022/02/27 05:32:07;;;;;;;5.13;2.75;;;;;;;17.87;41.40;103065.59;5014564;28;20018;-66
2022/02/27 05:34:33;;;;;;;6.28;2.80;;;;;;;17.87;41.40;103063.81;5013347;28;20481;-66
2022/02/27 05:36:58;;;;;;;5.93;2.88;;;;;;;17.87;41.22;103063.81;5014428;28;20018;-66
2022/02/27 05:39:23;;;;;;;6.35;2.67;;;;;;;17.87;40.89;103057.69;5014314;28;20030;-66
2022/02/27 05:41:49;;;;;;;5.07;2.50;;;;;;;17.86;41.22;103058.59;5013476;28;20497;-66
2022/02/27 05:44:14;;;;;;;7.00;2.70;;;;;;;17.85;40.84;103056.88;5014468;28;20410;-66
2022/02/27 05:46:40;;;;;;;5.50;2.50;;;;;;;17.84;41.07;103056.03;5013930;28;20041;-66
2022/02/27 05:49:05;;;;;;;5.93;2.60;;;;;;;17.85;41.44;103055.13;5013418;28;20073;-66
2022/02/27 05:51:30;;;;;;;5.40;2.53;;;;;;;17.84;41.45;103056.03;5014118;28;20069;-66
2022/02/27 05:53:55;;;;;;;6.45;2.60;;;;;;;17.85;41.62;103052.47;5014432;28;20267;-66
2022/02/27 05:56:21;;;;;;;5.97;2.33;;;;;;;17.86;41.23;103056.81;5013230;28;20089;-66
2022/02/27 05:58:46;;;;;;;5.60;2.20;;;;;;;17.85;41.09;103044.56;5014257;28;20272;-66
2022/02/27 06:01:11;;;;;;;5.45;2.65;;;;;;;17.86;40.91;103058.59;5014175;28;20057;-68
2022/02/27 06:03:36;;;;;;;7.53;2.90;;;;;;;17.85;41.32;103048.97;5012911;28;20032;-66
2022/02/27 06:06:02;;;;;;;5.25;2.47;;;;;;;17.89;41.76;103058.50;5014171;28;20034;-66
2022/02/27 06:08:27;;;;;;;5.35;2.42;;;;;;;17.89;42.39;103054.06;5013530;28;20477;-66
2022/02/27 06:10:52;;;;;;;6.38;2.80;;;;;;;17.93;42.55;103052.19;5013199;28;20059;-66
2022/02/27 06:13:18;;;;;;;6.00;2.47;;;;;;;17.96;42.63;103059.94;5013782;28;20026;-66
2022/02/27 06:15:43;;;;;;;5.53;2.30;;;;;;;17.96;42.67;103059.94;5013507;28;20022;-66
2022/02/27 06:18:08;;;;;;;6.53;2.30;;;;;;;18.00;42.30;103058.03;5012911;28;20049;-66
2022/02/27 06:20:33;;;;;;;4.90;2.17;;;;;;;18.02;42.89;103070.19;5013562;28;20275;-67
2022/02/27 06:22:59;;;;;;;4.80;2.22;;;;;;;18.04;42.30;103070.13;5013748;28;20279;-66
2022/02/27 06:25:24;;;;;;;6.72;2.35;;;;;;;18.06;42.65;103063.03;5012791;28;20030;-65
2022/02/27 06:27:50;;;;;;;6.25;2.47;;;;;;;18.07;42.50;103062.94;5013557;28;20458;-65
2022/02/27 06:30:21;;;;;;;5.18;2.40;;;;;;;18.06;42.49;103050.66;5012969;28;20053;-65
2022/02/27 06:32:48;;;;;;;5.50;2.33;;;;;;;18.10;42.51;103059.28;5013472;28;20065;-65
2022/02/27 06:35:14;;;;;;;5.22;2.30;;;;;;;18.10;42.82;103060.16;5013575;28;20026;-65
2022/02/27 06:37:39;;;;;;;4.60;2.03;;;;;;;18.11;42.63;103061.88;5012517;28;20060;-65
2022/02/27 06:40:06;;;;;;;6.40;2.40;;;;;;;18.11;42.79;103053.94;5013314;28;20053;-65
2022/02/27 06:42:31;;;;;;;7.22;2.25;;;;;;;18.14;43.81;103060.88;5012919;28;20022;-65
2022/02/27 06:44:57;;;;;;;4.70;2.10;;;;;;;18.13;44.46;103051.22;5012505;28;20480;-65
2022/02/27 06:47:22;;;;;;;6.47;2.47;;;;;;;18.17;44.34;103057.25;5012903;28;20462;-65
2022/02/27 06:49:48;;;;;;;5.88;2.10;;;;;;;18.18;44.46;103061.59;5013338;28;20044;-65
2022/02/27 06:52:13;;;;;;;5.90;2.00;;;;;;;18.18;44.68;103062.44;5012661;28;20431;-65
2022/02/27 06:54:38;;;;;;;7.00;2.25;;;;;;;18.21;44.42;103066.72;5012414;28;20271;-65
2022/02/27 06:57:03;;;;;;;4.30;1.83;;;;;;;18.21;44.26;103074.63;5013012;28;20029;-65
2022/02/27 06:59:29;;;;;;;4.70;1.83;;;;;;;18.22;44.24;103068.44;5012121;28;20271;-65
2022/02/27 07:01:54;;;;;;;4.15;1.70;;;;;;;18.23;43.87;103073.66;5012991;28;20059;-65
2022/02/27 07:04:19;;;;;;;6.83;2.50;;;;;;;18.24;44.00;103079.78;5012867;28;20030;-66
2022/02/27 07:06:44;;;;;;;5.90;1.80;;;;;;;18.24;44.13;103072.69;5012041;28;20349;-65
2022/02/27 07:09:10;;;;;;;5.40;1.90;;;;;;;18.25;44.25;103076.22;5012913;28;20038;-65
2022/02/27 07:11:35;;;;;;;5.07;2.07;;;;;;;18.24;44.45;103072.69;5012592;28;20022;-65
2022/02/27 07:14:00;;;;;;;4.80;1.88;;;;;;;18.24;43.92;103071.84;5012159;28;20267;-65
2022/02/27 07:16:25;;;;;;;6.18;2.20;;;;;;;18.25;44.17;103065.66;5012400;28;20465;-65
2022/02/27 07:18:56;;;;;;;5.03;2.05;;;;;;;18.27;44.68;103069.91;5012958;28;20048;-65
2022/02/27 07:21:22;;;;;;;6.32;2.90;;;;;;;18.27;44.82;103069.91;5011837;28;20018;-65
2022/02/27 07:23:47;;;;;;;6.65;2.55;;;;;;;18.26;44.73;103065.59;5012891;28;20026;-65
2022/02/27 07:26:13;;;;;;;7.55;2.40;;;;;;;18.28;45.00;103065.53;5012655;28;20044;-65
2022/02/27 07:28:38;;;;;;;7.10;1.83;;;;;;;18.28;44.55;103058.44;5011713;28;20492;-66
2022/02/27 07:31:03;;;;;;;4.90;1.90;;;;;;;18.29;44.87;103054.00;5012666;28;20061;-66
2022/02/27 07:33:28;;;;;;;3.92;1.80;;;;;;;18.30;44.73;103059.22;5011603;28;20287;-66
2022/02/27 07:35:54;;;;;;;5.80;1.97;;;;;;;18.31;45.13;103060.09;5012808;28;20058;-66
2022/02/27 07:38:19;;;;;;;5.60;2.15;;;;;;;18.33;44.47;103062.66;5012725;28;20282;-67
2022/02/27 07:40:45;;;;;;;4.32;1.75;;;;;;;18.34;44.58;103067.88;5012085;28;20496;-66
2022/02/27 07:43:10;;;;;;;5.50;1.88;;;;;;;18.34;44.69;103067.88;5012767;28;20084;-66
2022/02/27 07:45:36;;;;;;;4.30;1.67;;;;;;;18.36;44.62;103073.06;5012166;28;20116;-68
2022/02/27 07:48:01;;;;;;;6.23;2.10;;;;;;;18.36;44.62;103060.72;5011336;28;20022;-67
2022/02/27 07:50:26;;;;;;;5.03;1.80;;;;;;;18.39;44.74;103065.88;5012311;28;20026;-66
2022/02/27 07:52:51;;;;;;;5.10;1.83;;;;;;;18.38;42.41;103065.94;5012565;28;20034;-67
2022/02/27 07:55:19;;;;;;;5.40;2.50;;;;;;;18.41;44.16;103060.50;5011752;28;20405;-67
2022/02/27 07:57:45;;;;;;;4.70;1.75;;;;;;;18.44;43.81;103069.13;5012493;28;20295;-69
2022/02/27 08:00:10;;;;;;;8.77;2.13;;;;;;;18.47;41.11;103069.00;5012406;28;20160;-66
2022/02/27 08:02:36;;;;;;;5.40;1.80;;;;;;;18.46;42.92;103075.19;5011369;28;20470;-68
2022/02/27 08:05:01;;;;;;;6.37;1.83;;;;;;;18.47;43.46;103061.06;5012245;28;20033;-67
2022/02/27 08:07:26;;;;;;;6.57;2.00;;;;;;;18.56;44.45;103078.25;5014738;28;20291;-68
2022/02/27 08:09:54;;;;;;;4.80;1.87;;;;;;;18.60;44.84;103078.97;5015802;28;20758;-67
2022/02/27 08:12:19;;;;;;;4.07;1.90;;;;;;;18.64;44.57;103073.47;5015839;28;20474;-67
2022/02/27 08:14:46;;;;;;;5.22;1.52;;;;;;;18.68;44.85;103077.66;5016006;28;20057;-69
2022/02/27 08:17:13;;;;;;;4.78;1.70;;;;;;;18.72;44.75;103085.44;5015362;28;20038;-67
2022/02/27 08:19:38;;;;;;;4.18;1.50;;;;;;;18.74;44.95;103076.53;5015575;28;20478;-68
2022/02/27 08:22:03;;;;;;;5.80;1.70;;;;;;;18.77;44.88;103080.78;5015998;28;20025;-67
2022/02/27 08:24:29;;;;;;;4.85;1.60;;;;;;;18.78;44.95;103069.28;5014965;28;20119;-67
2022/02/27 08:26:54;;;;;;;5.63;1.73;;;;;;;18.80;44.85;103080.63;5015635;28;20029;-67
2022/02/27 08:29:19;;;;;;;5.00;1.67;;;;;;;18.80;45.29;103073.59;5015253;28;19917;-65
2022/02/27 08:31:45;;;;;;;5.47;1.63;;;;;;;18.82;45.05;103074.34;5015215;28;20370;-65
2022/02/27 08:34:10;;;;;;;4.85;1.80;;;;;;;18.84;45.09;103075.16;5015761;28;20030;-66
2022/02/27 08:36:36;;;;;;;4.95;1.80;;;;;;;18.88;45.29;103083.78;5015233;28;20101;-66
2022/02/27 08:39:03;;;;;;;5.30;1.92;;;;;;;18.88;45.08;103080.28;5014824;28;20473;-65
2022/02/27 08:41:28;;;;;;;4.78;1.65;;;;;;;18.90;45.05;103079.28;5015228;28;20037;-65
2022/02/27 08:43:53;;;;;;;5.00;1.60;;;;;;;18.90;45.51;103091.63;5014571;28;20033;-65
2022/02/27 08:46:20;;;;;;;5.93;1.80;;;;;;;18.93;45.50;103086.19;5015248;28;20026;-65
2022/02/27 08:48:46;;;;;;;4.95;1.73;;;;;;;18.93;45.44;103084.44;5015669;28;20275;-65
2022/02/27 08:51:12;;;;;;;;;;;;;;;18.94;45.59;103086.13;5015211;28;20414;-67
2022/02/27 08:53:37;;;;;;;;;;;;;;;18.94;45.58;103090.56;5015426;28;19955;-66
2022/02/27 08:56:02;;;;;;;;;;;;;;;18.97;45.43;103083.31;5015696;28;19956;-67
2022/02/27 08:58:28;;;;;;;;;;;;;;;19.06;45.96;103086.44;5014489;28;19920;-66
2022/02/27 09:00:53;;;;;;;;;;;;;;;19.14;45.34;103089.59;5015830;28;19924;-66
2022/02/27 09:03:24;;;;;;;;;;;;;;;19.18;45.65;103089.34;5015885;28;19967;-64
2022/02/27 09:05:50;;;;;;;5.22;1.80;;;;;;;19.17;45.77;103086.78;5014635;28;20078;-66
2022/02/27 09:08:15;;;;;;;5.18;1.65;;;;;;;19.13;45.56;103091.34;5015086;28;20034;-65
2022/02/27 09:10:40;;;;;;;4.63;1.77;;;;;;;19.10;45.83;103090.66;5014658;28;20393;-65
2022/02/27 09:13:06;;;;;;;5.70;1.48;;;;;;;19.09;45.79;103084.53;5014074;28;20283;-65
2022/02/27 09:15:32;;;;;;;5.30;1.80;;;;;;;19.13;45.97;103087.84;5015004;28;20040;-64
2022/02/27 09:17:57;;;;;;;6.88;1.70;;;;;;;19.17;45.83;103077.06;5014703;28;20272;-64
2022/02/27 09:20:23;;;;;;;6.93;1.98;;;;;;;19.29;45.19;103080.84;5014236;28;20026;-66
2022/02/27 09:22:48;;;;;;;5.43;1.70;;;;;;;19.37;45.89;103091.03;5014929;28;20026;-64
2022/02/27 09:25:16;;;;;;;5.90;1.77;;;;;;;19.37;45.43;103086.59;5014623;28;20080;-64
2022/02/27 09:27:41;;;;;;;5.97;1.60;;;;;;;19.44;45.37;103089.81;5013555;28;20270;-64
2022/02/27 09:30:07;;;;;;;3.78;1.52;;;;;;;19.50;45.71;103091.25;5014925;28;20022;-64
2022/02/27 09:32:33;;;;;;;5.32;1.60;;;;;;;19.51;45.52;103077.13;5014511;28;20022;-64
2022/02/27 09:34:58;;;;;;;5.70;1.55;;;;;;;19.52;45.75;103077.03;5013990;28;20033;-68
2022/02/27 09:37:24;;;;;;;6.77;1.70;;;;;;;19.54;45.86;103088.38;5014280;28;20504;-68
2022/02/27 09:39:50;;;;;;;5.55;1.65;;;;;;;19.56;45.50;103078.56;5014444;28;20641;-68
2022/02/27 09:42:15;;;;;;;6.47;2.00;;;;;;;19.62;45.67;103074.75;5013577;28;20032;-68
2022/02/27 09:44:42;;;;;;;6.38;1.60;;;;;;;19.64;45.40;103086.09;5014132;28;20033;-68
2022/02/27 09:47:16;;;;;;;5.25;1.50;;;;;;;19.61;45.48;103085.41;5013788;28;20025;-66
2022/02/27 09:49:46;;;;;;;3.97;1.58;;;;;;;19.55;45.91;103076.88;5014031;28;20024;-66
2022/02/27 09:52:13;;;;;;;5.30;1.70;;;;;;;19.49;45.77;103079.00;5014423;28;20032;-66
2022/02/27 09:54:38;;;;;;;4.28;1.45;;;;;;;19.44;45.65;103070.41;5013425;28;20028;-67
2022/02/27 09:57:04;;;;;;;4.47;1.50;;;;;;;19.38;45.76;103068.97;5014053;28;20025;-67
2022/02/27 09:59:29;;;;;;;4.07;1.42;;;;;;;19.37;45.58;103068.09;5014020;28;20030;-66
2022/02/27 10:02:04;;;;;;;4.90;1.92;;;;;;;19.42;45.90;103070.50;5013684;28;20022;-68
2022/02/27 10:04:35;;;;;;;4.00;1.33;;;;;;;19.48;45.59;103069.34;5013871;28;20029;-68
2022/02/27 10:07:00;;;;;;;5.38;1.50;;;;;;;19.52;45.88;103066.47;5013738;28;20529;-69
2022/02/27 10:09:26;;;;;;;5.50;1.55;;;;;;;19.55;45.85;103079.53;5012866;28;20069;-68
2022/02/27 10:11:52;;;;;;;3.97;1.50;;;;;;;19.54;45.70;103061.09;5014125;28;20018;-68
2022/02/27 10:14:25;;;;;;;9.10;1.50;;;;;;;19.59;45.47;103072.28;5014229;28;20416;-67
2022/02/27 10:17:00;;;;;;;5.28;1.63;;;;;;;19.60;45.83;103062.53;5013132;28;20029;-68
2022/02/27 10:19:25;;;;;;;3.65;1.58;;;;;;;19.63;45.50;103051.78;5013667;28;20026;-69
2022/02/27 10:21:51;;;;;;;4.87;1.23;;;;;;;19.67;45.66;103053.34;5013714;28;20026;-68
2022/02/27 10:24:17;;;;;;;6.07;1.63;;;;;;;19.70;45.23;103053.19;5012951;28;20374;-69
2022/02/27 10:26:44;;;;;;;;;;;;;;;19.70;45.52;103059.34;5013873;28;20026;-68
2022/02/27 10:32:08;;;;;;;;;;;;;;;19.71;45.92;103050.47;5010069;28;19924;-66
2022/02/27 10:34:34;;;;;;;;;;;;;;;19.71;45.34;103060.19;5013631;28;19921;-67
2022/02/27 10:37:04;;;;;;;;;;;;;;;19.71;45.56;103047.81;5013262;28;20048;-67
2022/02/27 10:39:34;;;;;;;;;;;;;;;19.72;45.37;103043.38;5013880;28;19920;-68
2022/02/27 10:42:09;;;;;;;;;;;;;;;19.70;45.77;103050.56;5014138;28;19914;-69
2022/02/27 10:44:34;;;;;;;;;;;;;;;19.66;44.26;103043.69;5012586;28;19913;-68
2022/02/27 10:47:08;;;;;;;;;;;;;;;19.64;44.01;103042.94;5013688;28;19920;-66
2022/02/27 10:49:34;;;;;;;;;;;;;;;19.63;44.80;103042.09;5013552;28;19959;-68
2022/02/27 10:52:14;;;;;;;;;;;;;;;19.65;45.31;103055.25;5013003;28;20337;-68
2022/02/27 10:54:43;;;;;;;;;;;;;;;19.64;45.42;103042.94;5013549;28;20063;-67
2022/02/27 10:57:25;;;;;;;;;;;;;;;19.66;45.45;103046.34;5013624;28;19960;-67
2022/02/27 10:59:51;;;;;;;;;;;;;;;19.67;45.70;103048.06;5013792;28;20020;-64
2022/02/27 11:02:16;;;;;;;;;;;;;;;19.66;45.80;103038.41;5013720;28;19994;-65
2022/02/27 11:04:42;;;;;;;;;;;;;;;19.66;45.98;103043.69;5012633;28;20347;-67
2022/02/27 11:07:07;;;;;;;;;;;;;;;19.65;45.64;103032.28;5013404;28;19917;-67
2022/02/27 11:09:33;;;;;;;;;;;;;;;19.65;45.77;103036.72;5013274;28;19971;-67
2022/02/27 11:11:59;;;;;;;;;;;;;;;19.64;46.18;103041.13;5012703;28;19983;-69
2022/02/27 11:14:25;;;;;;;;;;;;;;;19.63;45.96;103028.88;5013161;28;19909;-66
2022/02/27 11:16:51;;;;;;;;;;;;;;;19.64;45.65;103035.00;5013500;28;20391;-68
2022/02/27 11:19:17;;;;;;;;;;;;;;;19.59;45.19;103022.03;5012568;28;19913;-67
2022/02/27 11:21:42;;;;;;;;;;;;;;;19.58;45.88;103026.47;5013091;28;19913;-67
2022/02/27 11:24:08;;;;;;;;;;;;;;;19.60;46.03;103012.28;5013287;28;20468;-68
2022/02/27 11:26:33;;;;;;;;;;;;;;;19.61;45.78;103016.66;5012267;28;19913;-65
2022/02/27 11:28:58;;;;;;;;;;;;;;;19.57;45.73;103008.88;5013545;28;19913;-66